Time;durP1;ratioP1;P1;durP2;ratioP2;P2;SDS_P1;SDS_P2;PMS_P1;PMS_P2;Temp;Humidity;BMP_temperature;BMP_pressure;BME280_temperature;BME280_humidity;BME280_pressure;Samples;Min_cycle;Max_cycle;Signal;HPM_P1;HPM_P2
2022/10/24 00:00:54;;;;;;;;;;;;;;;11.10;100.00;100310.88;3051397;19;19935;-50
2022/10/24 00:01:56;;;;;;;;;;;;;;;11.11;100.00;100302.75;3051668;19;19918;-52
2022/10/24 00:03:01;;;;;;;;;;;;;;;11.13;100.00;100308.84;3051005;19;19998;-50
2022/10/24 00:04:03;;;;;;;;;;;;;;;11.15;100.00;100304.25;3051009;19;19949;-50
2022/10/24 00:05:27;;;;;;;;;;;;;;;11.19;100.00;100311.13;3046642;19;19945;-51
2022/10/24 00:06:29;;;;;;;;;;;;;;;11.21;100.00;100308.34;3050002;19;20385;-50
2022/10/24 00:07:33;;;;;;;;;;;;;;;11.23;100.00;100308.25;3051071;19;19930;-50
2022/10/24 00:08:35;;;;;;;;;;;;;;;11.23;100.00;100302.91;3050207;19;19923;-50
2022/10/24 00:09:40;;;;;;;;;;;;;;;11.24;100.00;100296.56;3048608;19;19926;-50
2022/10/24 00:10:42;;;;;;;;;;;;;;;11.25;100.00;100301.81;3050747;19;20330;-50
2022/10/24 00:11:47;;;;;;;;;;;;;;;11.26;100.00;100308.03;3050698;19;19939;-50
2022/10/24 00:12:49;;;;;;;;;;;;;;;11.28;100.00;100300.75;3051206;19;19935;-51
2022/10/24 00:13:54;;;;;;;;;;;;;;;11.27;100.00;100307.06;3051173;19;20478;-50
2022/10/24 00:14:56;;;;;;;;;;;;;;;11.28;100.00;100304.28;3047722;19;19914;-49
2022/10/24 00:16:00;;;;;;;;;;;;;;;11.28;100.00;100306.09;3049008;19;19930;-50
2022/10/24 00:17:03;;;;;;;;;;;;;;;11.29;100.00;100307.81;3050317;19;19919;-49
2022/10/24 00:18:07;;;;;;;;;;;;;;;11.26;100.00;100302.69;3050733;19;19906;-49
2022/10/24 00:19:09;;;;;;;;;;;;;;;11.27;100.00;100307.06;3050533;19;20270;-51
2022/10/24 00:20:13;;;;;;;;;;;;;;;11.22;100.00;100302.06;3050362;19;20312;-50
2022/10/24 00:21:15;;;;;;;;;;;;;;;11.28;100.00;100316.78;3050622;19;20722;-51
2022/10/24 00:22:20;;;;;;;;;;;;;;;11.29;100.00;100321.19;3050781;19;19922;-51
2022/10/24 00:23:21;;;;;;;;;;;;;;;11.29;100.00;100321.19;3050272;19;20232;-50
2022/10/24 00:24:26;;;;;;;;;;;;;;;11.29;100.00;100321.19;3051197;19;20271;-51
2022/10/24 00:25:28;;;;;;;;;;;;;;;11.30;100.00;100323.75;3046308;19;19946;-50
2022/10/24 00:26:32;;;;;;;;;;;;;;;11.31;100.00;100324.59;3050170;19;19940;-50
2022/10/24 00:27:34;;;;;;;;;;;;;;;11.32;100.00;100335.19;3050748;19;20070;-50
2022/10/24 00:28:39;;;;;;;;;;;;;;;11.32;100.00;100334.34;3051204;19;19978;-50
2022/10/24 00:29:41;;;;;;;;;;;;;;;11.31;100.00;100324.59;3050116;19;19922;-50
2022/10/24 00:30:45;;;;;;;;;;;;;;;11.28;100.00;100319.47;3050548;19;20381;-51
2022/10/24 00:31:47;;;;;;;;;;;;;;;11.26;100.00;100314.22;3051309;19;20262;-50
2022/10/24 00:32:52;;;;;;;;;;;;;;;11.26;100.00;100316.03;3051546;19;19991;-50
2022/10/24 00:33:55;;;;;;;;;;;;;;;11.24;100.00;100324.16;3050367;19;19995;-51
2022/10/24 00:35:00;;;;;;;;;;;;;;;11.22;100.00;100328.75;3047376;19;19931;-50
2022/10/24 00:36:01;;;;;;;;;;;;;;;11.22;100.00;100325.22;3049550;19;19930;-50
2022/10/24 00:37:06;;;;;;;;;;;;;;;11.22;100.00;100325.22;3050474;19;19930;-50
2022/10/24 00:38:08;;;;;;;;;;;;;;;11.22;100.00;100319.91;3050154;19;19923;-50
2022/10/24 00:39:12;;;;;;;;;;;;;;;11.22;100.00;100325.22;3051008;19;19919;-50
2022/10/24 00:40:15;;;;;;;;;;;;;;;11.22;100.00;100317.22;3049920;19;19934;-51
2022/10/24 00:41:20;;;;;;;;;;;;;;;11.22;100.00;100309.22;3050740;19;20476;-51
2022/10/24 00:42:22;;;;;;;;;;;;;;;11.22;100.00;100314.53;3050090;19;19976;-51
2022/10/24 00:43:27;;;;;;;;;;;;;;;11.22;100.00;100315.41;3051445;19;19926;-50
2022/10/24 00:44:30;;;;;;;;;;;;;;;11.23;100.00;100317.09;3049786;19;19986;-51
2022/10/24 00:45:35;;;;;;;;;;;;;;;11.24;100.00;100317.94;3047049;19;20226;-50
2022/10/24 00:46:37;;;;;;;;;;;;;;;11.25;100.00;100317.00;3049723;19;19915;-50
2022/10/24 00:47:42;;;;;;;;;;;;;;;11.27;100.00;100307.06;3049762;19;20330;-50
2022/10/24 00:48:48;;;;;;;;;;;;;;;11.26;100.00;100305.34;3048933;19;19945;-50
2022/10/24 00:49:59;;;;;;;;;;;;;;;11.26;100.00;100313.38;3049547;19;19930;-50
2022/10/24 00:51:10;;;;;;;;;;;;;;;11.26;100.00;100311.53;3048628;19;20361;-50
2022/10/24 00:52:15;;;;;;;;;;;;;;;11.27;100.00;100302.56;3049164;19;19931;-50
2022/10/24 00:53:16;;;;;;;;;;;;;;;11.28;100.00;100303.44;3049369;19;19919;-51
2022/10/24 00:54:21;;;;;;;;;;;;;;;11.28;100.00;100303.44;3050872;19;19922;-50
2022/10/24 00:55:23;;;;;;;;;;;;;;;11.27;100.00;100301.72;3046603;19;20516;-50
2022/10/24 00:56:27;;;;;;;;;;;;;;;11.29;100.00;100294.47;3049939;19;19935;-52
2022/10/24 00:57:42;;;;;;;;;;;;;;;11.28;100.00;100292.75;3049511;19;19915;-50
2022/10/24 00:58:44;;;;;;;;;;;;;;;11.30;100.00;100296.19;3049423;19;19919;-51
2022/10/24 00:59:49;;;;;;;;;;;;;;;11.24;100.00;100281.41;3049302;19;19918;-50
2022/10/24 01:00:51;;;;;;;;;;;;;;;11.31;100.00;100292.56;3049816;19;19941;-50
2022/10/24 01:01:55;;;;;;;;;;;;;;;11.31;100.00;100290.75;3050670;19;19938;-49
2022/10/24 01:02:57;;;;;;;;;;;;;;;11.33;100.00;100285.28;3050403;19;19928;-50
2022/10/24 01:04:02;;;;;;;;;;;;;;;11.34;100.00;100287.00;3049911;19;19949;-50
2022/10/24 01:05:04;;;;;;;;;;;;;;;11.36;100.00;100290.41;3046508;19;19918;-51
2022/10/24 01:06:08;;;;;;;;;;;;;;;11.37;100.00;100289.44;3048693;19;19922;-49
2022/10/24 01:07:19;;;;;;;;;;;;;;;11.37;100.00;100287.63;3048196;19;19995;-50
2022/10/24 01:08:23;;;;;;;;;;;;;;;11.38;100.00;100285.81;3050292;19;19919;-50
2022/10/24 01:09:31;;;;;;;;;;;;;;;11.38;100.00;100284.00;3050351;19;20284;-51
2022/10/24 01:10:48;;;;;;;;;;;;;;;11.39;100.00;100284.84;3049785;19;19982;-49
2022/10/24 01:12:12;;;;;;;;;;;;;;;11.41;100.00;100288.28;3048055;19;20282;-51
2022/10/24 01:13:23;;;;;;;;;;;;;;;11.43;100.00;100291.72;3050071;19;19914;-51
2022/10/24 01:14:27;;;;;;;;;;;;;;;11.44;100.00;100291.63;3049574;19;20245;-51
2022/10/24 01:15:45;;;;;;;;;;;;;;;11.45;100.00;100289.81;3044067;19;20391;-50
2022/10/24 01:16:50;;;;;;;;;;;;;;;11.47;100.00;100293.22;3050163;19;20277;-50
2022/10/24 01:17:52;;;;;;;;;;;;;;;11.47;100.00;100293.22;3049309;19;19982;-52
2022/10/24 01:19:06;;;;;;;;;;;;;;;11.47;100.00;100295.91;3049477;19;20415;-51
2022/10/24 01:20:15;;;;;;;;;;;;;;;11.47;100.00;100295.91;3048801;19;19923;-49
2022/10/24 01:21:30;;;;;;;;;;;;;;;11.46;100.00;100292.38;3049643;19;20669;-50
2022/10/24 01:22:37;;;;;;;;;;;;;;;11.45;100.00;100287.13;3052273;19;19923;-50
2022/10/24 01:23:56;;;;;;;;;;;;;;;11.44;100.00;100286.28;3052810;19;19934;-50
2022/10/24 01:25:21;;;;;;;;;;;;;;;11.43;100.00;100286.38;3049350;19;19914;-52
2022/10/24 01:26:41;;;;;;;;;;;;;;;11.42;100.00;100290.00;3051364;19;19918;-51
2022/10/24 01:28:06;;;;;;;;;;;;;;;11.40;100.00;100284.75;3052909;19;20393;-50
2022/10/24 01:29:26;;;;;;;;;;;;;;;11.36;100.00;100285.06;3053419;19;20348;-50
2022/10/24 01:30:31;;;;;;;;;;;;;;;11.35;100.00;100284.19;3052754;19;19933;-50
2022/10/24 01:31:43;;;;;;;;;;;;;;;11.31;100.00;100276.53;3052153;19;19922;-49
2022/10/24 01:33:04;;;;;;;;;;;;;;;11.30;100.00;100275.66;3051992;19;19915;-51
2022/10/24 01:34:07;;;;;;;;;;;;;;;11.29;100.00;100279.28;3051889;19;19935;-50
2022/10/24 01:35:34;;;;;;;;;;;;;;;11.28;100.00;100276.72;3048582;19;20423;-50
2022/10/24 01:36:39;;;;;;;;;;;;;;;11.27;100.00;100288.38;3052599;19;19927;-50
2022/10/24 01:37:45;;;;;;;;;;;;;;;11.26;100.00;100283.97;3052904;19;20239;-50
2022/10/24 01:38:51;;;;;;;;;;;;;;;11.25;100.00;100287.59;3053149;19;20227;-50
2022/10/24 01:39:54;;;;;;;;;;;;;;;11.24;100.00;100285.88;3052518;19;19925;-50
2022/10/24 01:41:09;;;;;;;;;;;;;;;11.23;100.00;100289.56;3052715;19;19919;-50
2022/10/24 01:42:11;;;;;;;;;;;;;;;11.21;100.00;100286.13;3051820;19;19926;-49
2022/10/24 01:43:15;;;;;;;;;;;;;;;11.20;100.00;100279.94;3052023;19;19910;-49
2022/10/24 01:44:24;;;;;;;;;;;;;;;11.18;100.00;100277.34;3052107;19;19941;-52
2022/10/24 01:45:35;;;;;;;;;;;;;;;11.17;100.00;100270.28;3046611;19;20387;-50
2022/10/24 01:46:39;;;;;;;;;;;;;;;11.17;100.00;100272.97;3051883;19;19919;-50
2022/10/24 01:47:45;;;;;;;;;;;;;;;11.17;100.00;100280.13;3051380;19;19918;-49
2022/10/24 01:48:48;;;;;;;;;;;;;;;11.18;100.00;100274.69;3051547;19;20365;-50
2022/10/24 01:49:54;;;;;;;;;;;;;;;11.15;100.00;100271.34;3051289;19;20079;-50
2022/10/24 01:50:56;;;;;;;;;;;;;;;11.15;100.00;100266.88;3051484;19;20306;-51
2022/10/24 01:52:01;;;;;;;;;;;;;;;11.16;100.00;100267.72;3051935;19;19923;-51
2022/10/24 01:53:03;;;;;;;;;;;;;;;11.13;100.00;100263.44;3051605;19;19918;-50
2022/10/24 01:54:07;;;;;;;;;;;;;;;11.12;100.00;100261.72;3051812;19;20002;-50
2022/10/24 01:55:09;;;;;;;;;;;;;;;11.09;100.00;100253.94;3048724;19;20014;-51
2022/10/24 01:56:14;;;;;;;;;;;;;;;11.08;100.00;100249.56;3050803;19;19919;-49
2022/10/24 01:57:15;;;;;;;;;;;;;;;11.08;100.00;100241.56;3051886;19;20363;-50
2022/10/24 01:58:20;;;;;;;;;;;;;;;11.08;100.00;100244.22;3053664;19;20682;-50
2022/10/24 01:59:26;;;;;;;;;;;;;;;10.99;100.00;100218.09;3053068;19;20298;-50
2022/10/24 02:00:31;;;;;;;;;;;;;;;10.98;100.00;100232.44;3051476;19;19931;-50
2022/10/24 02:01:33;;;;;;;;;;;;;;;11.02;100.00;100233.94;3052535;19;19945;-50
2022/10/24 02:02:39;;;;;;;;;;;;;;;11.00;100.00;100225.16;3052141;19;19918;-50
2022/10/24 02:03:51;;;;;;;;;;;;;;;10.98;100.00;100227.13;3051210;19;19925;-49
2022/10/24 02:04:55;;;;;;;;;;;;;;;10.99;100.00;100218.09;3049633;19;19919;-49
2022/10/24 02:06:01;;;;;;;;;;;;;;;10.99;100.00;100218.09;3048277;19;19945;-50
2022/10/24 02:07:03;;;;;;;;;;;;;;;11.01;100.00;100218.00;3050509;19;19918;-52
2022/10/24 02:08:09;;;;;;;;;;;;;;;11.01;100.00;100212.66;3050286;19;19927;-50
2022/10/24 02:09:13;;;;;;;;;;;;;;;11.02;100.00;100212.56;3051849;19;19987;-50
2022/10/24 02:10:24;;;;;;;;;;;;;;;11.04;100.00;100216.00;3051291;19;19922;-50
2022/10/24 02:11:26;;;;;;;;;;;;;;;11.03;100.00;100203.59;3051981;19;19923;-50
2022/10/24 02:12:30;;;;;;;;;;;;;;;11.05;100.00;100209.69;3052075;19;19919;-52
2022/10/24 02:13:44;;;;;;;;;;;;;;;11.05;100.00;100201.69;3050817;19;19930;-49
2022/10/24 02:14:47;;;;;;;;;;;;;;;11.06;100.00;100198.06;3050867;19;20306;-51
2022/10/24 02:15:52;;;;;;;;;;;;;;;11.06;100.00;100197.22;3047842;19;19919;-51
2022/10/24 02:16:53;;;;;;;;;;;;;;;11.09;100.00;100194.34;3051365;19;20208;-50
2022/10/24 02:17:58;;;;;;;;;;;;;;;11.08;100.00;100204.16;3051893;19;19927;-50
2022/10/24 02:19:00;;;;;;;;;;;;;;;11.07;100.00;100196.25;3051743;19;19923;-50
2022/10/24 02:20:04;;;;;;;;;;;;;;;11.06;100.00;100200.72;3050665;19;19919;-50
2022/10/24 02:21:21;;;;;;;;;;;;;;;11.06;100.00;100202.56;3053024;19;20398;-50
2022/10/24 02:22:40;;;;;;;;;;;;;;;11.03;100.00;100203.59;3052148;19;20302;-51
2022/10/24 02:23:56;;;;;;;;;;;;;;;11.02;100.00;100207.22;3052010;19;19918;-50
2022/10/24 02:25:04;;;;;;;;;;;;;;;10.99;100.00;100202.09;3049497;19;19915;-50
2022/10/24 02:26:07;;;;;;;;;;;;;;;10.97;100.00;100209.38;3049258;19;19974;-50
2022/10/24 02:27:12;;;;;;;;;;;;;;;10.96;100.00;100196.97;3051958;19;20582;-50
2022/10/24 02:28:18;;;;;;;;;;;;;;;10.97;100.00;100201.38;3051212;19;19922;-50
2022/10/24 02:29:26;;;;;;;;;;;;;;;10.96;100.00;100196.97;3052152;19;20236;-49
2022/10/24 02:30:28;;;;;;;;;;;;;;;10.96;100.00;100196.97;3051362;19;19942;-51
2022/10/24 02:31:33;;;;;;;;;;;;;;;10.95;100.00;100195.28;3051326;19;19945;-50
2022/10/24 02:32:47;;;;;;;;;;;;;;;10.95;100.00;100200.59;3050552;19;19922;-50
2022/10/24 02:33:49;;;;;;;;;;;;;;;10.98;100.00;100205.75;3051094;19;20554;-50
2022/10/24 02:34:54;;;;;;;;;;;;;;;10.97;100.00;100205.84;3049064;19;19923;-51
2022/10/24 02:35:57;;;;;;;;;;;;;;;10.98;100.00;100205.75;3048293;19;19927;-50
2022/10/24 02:37:01;;;;;;;;;;;;;;;10.98;100.00;100211.09;3051302;19;19924;-50
2022/10/24 02:38:08;;;;;;;;;;;;;;;10.96;100.00;100207.66;3052828;19;19940;-50
2022/10/24 02:39:10;;;;;;;;;;;;;;;10.98;100.00;100208.41;3049695;19;19930;-50
2022/10/24 02:40:15;;;;;;;;;;;;;;;10.98;100.00;100211.09;3051844;19;19921;-50
2022/10/24 02:41:24;;;;;;;;;;;;;;;10.99;100.00;100212.78;3051041;19;20006;-51
2022/10/24 02:42:28;;;;;;;;;;;;;;;10.99;100.00;100210.09;3050980;19;19919;-52
2022/10/24 02:43:53;;;;;;;;;;;;;;;10.99;100.00;100207.44;3051769;19;19919;-51
2022/10/24 02:44:54;;;;;;;;;;;;;;;10.98;100.00;100205.75;3048990;19;19914;-50
2022/10/24 02:45:59;;;;;;;;;;;;;;;10.98;100.00;100207.56;3047408;19;19962;-50
2022/10/24 02:47:01;;;;;;;;;;;;;;;10.98;100.00;100213.75;3050710;19;19922;-50
2022/10/24 02:48:06;;;;;;;;;;;;;;;10.98;100.00;100208.41;3050092;19;19943;-50
2022/10/24 02:49:08;;;;;;;;;;;;;;;10.97;100.00;100201.38;3049882;19;19915;-51
2022/10/24 02:50:12;;;;;;;;;;;;;;;10.97;100.00;100204.03;3051045;19;20324;-50
2022/10/24 02:51:14;;;;;;;;;;;;;;;10.98;100.00;100208.41;3051644;19;19945;-51
2022/10/24 02:52:18;;;;;;;;;;;;;;;10.96;100.00;100202.31;3050778;19;19990;-51
2022/10/24 02:53:21;;;;;;;;;;;;;;;10.93;100.00;100197.19;3052206;19;19918;-51
2022/10/24 02:54:26;;;;;;;;;;;;;;;10.94;100.00;100193.56;3050706;19;19935;-50
2022/10/24 02:55:27;;;;;;;;;;;;;;;10.93;100.00;100196.31;3046921;19;20413;-51
2022/10/24 02:56:32;;;;;;;;;;;;;;;10.90;100.00;100192.03;3051798;19;20685;-50
2022/10/24 02:57:34;;;;;;;;;;;;;;;10.90;100.00;100186.72;3051865;19;19927;-50
2022/10/24 02:58:38;;;;;;;;;;;;;;;10.89;100.00;100185.00;3052742;19;19923;-50
2022/10/24 02:59:40;;;;;;;;;;;;;;;10.87;100.00;100192.25;3050998;19;19926;-50
2022/10/24 03:00:44;;;;;;;;;;;;;;;10.86;100.00;100185.22;3052040;19;19919;-52
2022/10/24 03:01:46;;;;;;;;;;;;;;;10.86;100.00;100187.03;3052546;19;19922;-52
2022/10/24 03:02:51;;;;;;;;;;;;;;;10.85;100.00;100188.84;3052267;19;20288;-51
2022/10/24 03:03:52;;;;;;;;;;;;;;;10.84;100.00;100192.47;3051736;19;19918;-51
2022/10/24 03:04:57;;;;;;;;;;;;;;;10.85;100.00;100196.84;3049341;19;19922;-51
2022/10/24 03:05:58;;;;;;;;;;;;;;;10.84;100.00;100197.81;3047251;19;20316;-51
2022/10/24 03:07:03;;;;;;;;;;;;;;;10.81;100.00;100198.88;3050799;19;20364;-51
2022/10/24 03:08:05;;;;;;;;;;;;;;;10.81;100.00;100198.00;3051569;19;20039;-51
2022/10/24 03:09:09;;;;;;;;;;;;;;;10.78;100.00;100196.41;3050675;19;19930;-50
2022/10/24 03:10:11;;;;;;;;;;;;;;;10.77;100.00;100201.84;3051461;19;20388;-50
2022/10/24 03:11:15;;;;;;;;;;;;;;;10.76;100.00;100192.97;3052125;19;19911;-51
2022/10/24 03:12:17;;;;;;;;;;;;;;;10.75;100.00;100195.75;3050928;19;20185;-51
2022/10/24 03:13:21;;;;;;;;;;;;;;;10.73;100.00;100192.34;3053056;19;19919;-51
2022/10/24 03:14:23;;;;;;;;;;;;;;;10.72;100.00;100201.31;3051541;19;19919;-51
2022/10/24 03:15:28;;;;;;;;;;;;;;;10.70;100.00;100189.88;3046922;19;19945;-51
2022/10/24 03:16:29;;;;;;;;;;;;;;;10.70;100.00;100180.06;3050207;19;20577;-50
2022/10/24 03:17:34;;;;;;;;;;;;;;;10.70;100.00;100179.19;3051251;19;19923;-51
2022/10/24 03:18:36;;;;;;;;;;;;;;;10.68;100.00;100176.63;3051258;19;20448;-50
2022/10/24 03:19:40;;;;;;;;;;;;;;;10.66;100.00;100181.19;3051955;19;19922;-50
2022/10/24 03:20:42;;;;;;;;;;;;;;;10.67;100.00;100190.06;3051827;19;20345;-51
2022/10/24 03:21:46;;;;;;;;;;;;;;;10.61;100.00;100180.69;3052094;19;21190;-50
2022/10/24 03:22:48;;;;;;;;;;;;;;;10.64;100.00;100185.78;3051812;19;20004;-50
2022/10/24 03:23:52;;;;;;;;;;;;;;;10.64;100.00;100185.78;3051663;19;20336;-51
2022/10/24 03:24:54;;;;;;;;;;;;;;;10.65;100.00;100173.28;3049835;19;19915;-51
2022/10/24 03:25:59;;;;;;;;;;;;;;;10.67;100.00;100174.91;3048969;19;19923;-51
2022/10/24 03:27:01;;;;;;;;;;;;;;;10.67;100.00;100177.56;3051617;19;19926;-51
2022/10/24 03:28:05;;;;;;;;;;;;;;;10.68;100.00;100170.44;3051689;19;19922;-51
2022/10/24 03:29:07;;;;;;;;;;;;;;;10.69;100.00;100169.47;3050553;19;19919;-51
2022/10/24 03:30:12;;;;;;;;;;;;;;;10.69;100.00;100167.66;3051089;19;19931;-51
2022/10/24 03:31:14;;;;;;;;;;;;;;;10.70;100.00;100173.84;3051594;19;19911;-51
2022/10/24 03:32:18;;;;;;;;;;;;;;;10.70;100.00;100163.19;3052619;19;19918;-52
2022/10/24 03:33:20;;;;;;;;;;;;;;;10.70;100.00;100171.19;3051581;19;19922;-51
2022/10/24 03:34:24;;;;;;;;;;;;;;;10.70;100.00;100168.53;3050850;19;20245;-51
2022/10/24 03:35:26;;;;;;;;;;;;;;;10.72;100.00;100166.59;3046998;19;20433;-51
2022/10/24 03:36:31;;;;;;;;;;;;;;;10.73;100.00;100165.66;3049887;19;20368;-51
2022/10/24 03:37:32;;;;;;;;;;;;;;;10.74;100.00;100160.22;3050242;19;20361;-50
2022/10/24 03:38:37;;;;;;;;;;;;;;;10.74;100.00;100159.34;3050898;19;19938;-50
2022/10/24 03:39:38;;;;;;;;;;;;;;;10.75;100.00;100159.22;3051177;19;19941;-50
2022/10/24 03:40:43;;;;;;;;;;;;;;;10.77;100.00;100159.13;3051805;19;21363;-50
2022/10/24 03:42:07;;;;;;;;;;;;;;;10.80;100.00;100153.59;3051251;19;19923;-51
2022/10/24 03:43:09;;;;;;;;;;;;;;;10.82;100.00;100151.69;3051964;19;19914;-50
2022/10/24 03:44:13;;;;;;;;;;;;;;;10.83;100.00;100153.38;3049074;19;19923;-50
2022/10/24 03:45:18;;;;;;;;;;;;;;;10.84;100.00;100157.78;3048466;19;21562;-51
2022/10/24 03:46:19;;;;;;;;;;;;;;;10.85;100.00;100146.13;3049388;19;19930;-51
2022/10/24 03:47:24;;;;;;;;;;;;;;;10.87;100.00;100146.84;3052179;19;19923;-52
2022/10/24 03:48:26;;;;;;;;;;;;;;;10.89;100.00;100141.41;3051930;19;19919;-51
2022/10/24 03:49:31;;;;;;;;;;;;;;;10.90;100.00;100137.78;3049433;19;19930;-51
2022/10/24 03:50:33;;;;;;;;;;;;;;;10.87;100.00;100133.50;3051331;19;19926;-51
2022/10/24 03:51:37;;;;;;;;;;;;;;;10.95;100.00;100144.53;3050923;19;19923;-51
2022/10/24 03:52:39;;;;;;;;;;;;;;;10.97;100.00;100144.44;3051220;19;19910;-51
2022/10/24 03:53:43;;;;;;;;;;;;;;;10.98;100.00;100141.66;3050519;19;21177;-51
2022/10/24 03:54:45;;;;;;;;;;;;;;;11.01;100.00;100141.44;3050390;19;19926;-52
2022/10/24 03:55:49;;;;;;;;;;;;;;;11.03;100.00;100144.84;3047681;19;19930;-51
2022/10/24 03:56:51;;;;;;;;;;;;;;;11.05;100.00;100142.94;3050605;19;19925;-51
2022/10/24 03:57:55;;;;;;;;;;;;;;;11.08;100.00;100141.88;3050992;19;20267;-51
2022/10/24 03:58:57;;;;;;;;;;;;;;;11.09;100.00;100143.59;3051657;19;19918;-52
2022/10/24 04:00:01;;;;;;;;;;;;;;;11.11;100.00;100139.84;3049885;19;20338;-52
2022/10/24 04:01:08;;;;;;;;;;;;;;;11.12;100.00;100144.22;3051141;19;19990;-51
2022/10/24 04:02:13;;;;;;;;;;;;;;;11.16;100.00;100140.38;3050603;19;19915;-51
2022/10/24 04:03:15;;;;;;;;;;;;;;;11.16;100.00;100144.88;3051444;19;19923;-51
2022/10/24 04:04:19;;;;;;;;;;;;;;;11.19;100.00;100156.19;3050419;19;19954;-51
2022/10/24 04:05:21;;;;;;;;;;;;;;;11.22;100.00;100151.63;3047637;19;20249;-52
2022/10/24 04:06:25;;;;;;;;;;;;;;;11.24;100.00;100157.69;3050530;19;19914;-52
2022/10/24 04:07:27;;;;;;;;;;;;;;;11.24;100.00;100155.88;3051112;19;19934;-52
2022/10/24 04:08:32;;;;;;;;;;;;;;;11.27;100.00;100152.13;3050726;19;20670;-51
2022/10/24 04:09:33;;;;;;;;;;;;;;;11.28;100.00;100152.03;3049980;19;19923;-51
2022/10/24 04:10:38;;;;;;;;;;;;;;;11.29;100.00;100150.22;3048333;19;19926;-51
2022/10/24 04:11:42;;;;;;;;;;;;;;;11.31;100.00;100153.63;3050841;19;20702;-52
2022/10/24 04:12:44;;;;;;;;;;;;;;;11.32;100.00;100150.00;3051291;19;19922;-51
2022/10/24 04:13:48;;;;;;;;;;;;;;;11.34;100.00;100156.09;3051514;19;19985;-51
2022/10/24 04:14:50;;;;;;;;;;;;;;;11.35;100.00;100149.81;3048353;19;20336;-52
2022/10/24 04:15:54;;;;;;;;;;;;;;;11.37;100.00;100153.19;3048361;19;20242;-51
2022/10/24 04:16:56;;;;;;;;;;;;;;;11.37;100.00;100143.34;3050721;19;19940;-51
2022/10/24 04:18:01;;;;;;;;;;;;;;;11.38;100.00;100153.09;3050977;19;19941;-51
2022/10/24 04:19:02;;;;;;;;;;;;;;;11.40;100.00;100139.63;3050655;19;20301;-51
2022/10/24 04:20:07;;;;;;;;;;;;;;;11.42;100.00;100140.38;3050516;19;20249;-51
2022/10/24 04:21:12;;;;;;;;;;;;;;;11.41;100.00;100142.19;3050825;19;19957;-51
2022/10/24 04:22:18;;;;;;;;;;;;;;;11.42;100.00;100138.56;3049974;19;20376;-52
2022/10/24 04:23:24;;;;;;;;;;;;;;;11.43;100.00;100142.09;3050726;19;20038;-52
2022/10/24 04:24:26;;;;;;;;;;;;;;;11.45;100.00;100130.34;3051130;19;19915;-51
2022/10/24 04:25:30;;;;;;;;;;;;;;;11.44;100.00;100127.78;3047255;19;19981;-51
2022/10/24 04:26:32;;;;;;;;;;;;;;;11.44;100.00;100128.63;3050377;19;20269;-51
2022/10/24 04:27:39;;;;;;;;;;;;;;;11.47;100.00;100125.72;3049253;19;19915;-51
2022/10/24 04:28:42;;;;;;;;;;;;;;;11.44;100.00;100125.09;3049807;19;20399;-51
2022/10/24 04:29:47;;;;;;;;;;;;;;;11.50;100.00;100135.34;3049539;19;19923;-51
2022/10/24 04:30:52;;;;;;;;;;;;;;;11.48;100.00;100131.91;3050622;19;20384;-51
2022/10/24 04:31:57;;;;;;;;;;;;;;;11.54;100.00;100123.47;3050714;19;20248;-52
2022/10/24 04:32:59;;;;;;;;;;;;;;;11.57;100.00;100127.75;3051258;19;20700;-51
2022/10/24 04:34:04;;;;;;;;;;;;;;;11.58;100.00;100130.31;3049987;19;19930;-51
2022/10/24 04:35:06;;;;;;;;;;;;;;;11.59;100.00;100125.84;3047707;19;20257;-51
2022/10/24 04:36:10;;;;;;;;;;;;;;;11.61;100.00;100124.72;3046681;19;20464;-51
2022/10/24 04:37:12;;;;;;;;;;;;;;;11.62;100.00;100115.75;3050807;19;19911;-51
2022/10/24 04:38:17;;;;;;;;;;;;;;;11.62;100.00;100115.75;3049413;19;19915;-51
2022/10/24 04:39:18;;;;;;;;;;;;;;;11.63;100.00;100116.59;3050953;19;19925;-53
2022/10/24 04:40:23;;;;;;;;;;;;;;;11.63;100.00;100114.78;3049938;19;19975;-52
2022/10/24 04:41:27;;;;;;;;;;;;;;;11.64;100.00;100107.63;3049763;19;19915;-52
2022/10/24 04:42:29;;;;;;;;;;;;;;;11.69;100.00;100116.19;3050230;19;20058;-51
2022/10/24 04:43:33;;;;;;;;;;;;;;;11.65;100.00;100104.00;3050541;19;19922;-51
2022/10/24 04:44:35;;;;;;;;;;;;;;;11.65;100.00;100104.84;3049816;19;19929;-51
2022/10/24 04:45:39;;;;;;;;;;;;;;;11.66;100.00;100095.00;3046874;19;19934;-51
2022/10/24 04:46:44;;;;;;;;;;;;;;;11.66;100.00;100106.56;3050790;19;19972;-51
2022/10/24 04:47:51;;;;;;;;;;;;;;;11.66;100.00;100095.00;3051087;19;19919;-52
2022/10/24 04:48:56;;;;;;;;;;;;;;;11.70;100.00;100100.03;3049538;19;19927;-51
2022/10/24 04:49:58;;;;;;;;;;;;;;;11.68;100.00;100098.44;3046347;19;20433;-51
2022/10/24 04:51:02;;;;;;;;;;;;;;;11.71;100.00;100096.38;3050450;19;20265;-52
2022/10/24 04:52:04;;;;;;;;;;;;;;;11.69;100.00;100090.31;3049992;19;20353;-52
2022/10/24 04:53:08;;;;;;;;;;;;;;;11.70;100.00;100086.69;3050942;19;19944;-51
2022/10/24 04:54:10;;;;;;;;;;;;;;;11.72;100.00;100098.09;3050228;19;19934;-52
2022/10/24 04:55:15;;;;;;;;;;;;;;;11.73;100.00;100091.78;3048635;19;19960;-51
2022/10/24 04:56:17;;;;;;;;;;;;;;;11.75;100.00;100091.66;3047211;19;20255;-52
2022/10/24 04:57:21;;;;;;;;;;;;;;;11.78;100.00;100094.16;3050862;19;19929;-51
2022/10/24 04:58:23;;;;;;;;;;;;;;;11.77;100.00;100097.78;3049903;19;19930;-51
2022/10/24 04:59:27;;;;;;;;;;;;;;;11.78;100.00;100097.69;3050452;19;19943;-52
2022/10/24 05:00:29;;;;;;;;;;;;;;;11.78;100.00;100100.34;3047970;19;19923;-51
2022/10/24 05:01:33;;;;;;;;;;;;;;;11.80;100.00;100097.56;3049581;19;19914;-51
2022/10/24 05:02:35;;;;;;;;;;;;;;;11.82;100.00;100095.66;3050056;19;19919;-51
2022/10/24 05:03:40;;;;;;;;;;;;;;;11.82;100.00;100099.19;3049863;19;21357;-51
2022/10/24 05:04:41;;;;;;;;;;;;;;;11.81;100.00;100100.16;3049375;19;19939;-51
2022/10/24 05:05:46;;;;;;;;;;;;;;;11.82;100.00;100104.53;3045309;19;19926;-51
2022/10/24 05:06:48;;;;;;;;;;;;;;;11.83;100.00;100103.53;3048717;19;19989;-51
2022/10/24 05:07:52;;;;;;;;;;;;;;;11.84;100.00;100105.25;3049941;19;20691;-53
2022/10/24 05:08:54;;;;;;;;;;;;;;;11.85;100.00;100095.41;3049102;19;20041;-52
2022/10/24 05:09:58;;;;;;;;;;;;;;;11.85;100.00;100093.59;3049729;19;19931;-53
2022/10/24 05:11:00;;;;;;;;;;;;;;;11.85;100.00;100090.91;3049089;19;20572;-52
2022/10/24 05:12:05;;;;;;;;;;;;;;;11.87;100.00;100089.00;3049352;19;19990;-51
2022/10/24 05:13:07;;;;;;;;;;;;;;;11.87;100.00;100082.78;3049612;19;20264;-51
2022/10/24 05:14:11;;;;;;;;;;;;;;;11.88;100.00;100085.34;3050333;19;19939;-51
2022/10/24 05:15:17;;;;;;;;;;;;;;;11.90;100.00;100088.78;3047001;19;19937;-51
2022/10/24 05:16:19;;;;;;;;;;;;;;;11.93;100.00;100094.88;3047075;19;20006;-53
2022/10/24 05:17:23;;;;;;;;;;;;;;;11.92;100.00;100090.47;3050889;19;19911;-51
2022/10/24 05:18:25;;;;;;;;;;;;;;;11.94;100.00;100093.91;3050840;19;20276;-52
2022/10/24 05:19:29;;;;;;;;;;;;;;;11.94;100.00;100080.53;3048880;19;20237;-51
2022/10/24 05:20:31;;;;;;;;;;;;;;;11.97;100.00;100082.94;3049152;19;19930;-51
2022/10/24 05:21:35;;;;;;;;;;;;;;;11.98;100.00;100080.16;3049756;19;19923;-51
2022/10/24 05:22:37;;;;;;;;;;;;;;;11.99;100.00;100092.56;3049744;19;20361;-52
2022/10/24 05:23:42;;;;;;;;;;;;;;;12.01;100.00;100089.78;3050194;19;19929;-51
2022/10/24 05:24:44;;;;;;;;;;;;;;;11.99;100.00;100094.41;3049562;19;19915;-52
2022/10/24 05:25:48;;;;;;;;;;;;;;;12.00;100.00;100098.78;3046939;19;20010;-51
2022/10/24 05:26:50;;;;;;;;;;;;;;;12.02;100.00;100102.19;3049820;19;19915;-51
2022/10/24 05:27:54;;;;;;;;;;;;;;;12.03;100.00;100103.91;3049354;19;19923;-52
2022/10/24 05:28:56;;;;;;;;;;;;;;;12.04;100.00;100105.63;3050614;19;19914;-51
2022/10/24 05:30:00;;;;;;;;;;;;;;;12.04;100.00;100110.97;3049579;19;20365;-51